sensor_id;sensor_type;location;lat;lon;timestamp;pressure;altitude;pressure_sealevel;temperature;humidity
50380;BME280;37474;59.468;18.040;2023-10-08T00:01:20;100874.59;;;2.62;79.04
50380;BME280;37474;59.468;18.040;2023-10-08T00:03:48;100875.38;;;2.65;78.50
50380;BME280;37474;59.468;18.040;2023-10-08T00:06:19;100891.56;;;2.66;78.61
50380;BME280;37474;59.468;18.040;2023-10-08T00:08:48;100882.19;;;2.65;79.35
50380;BME280;37474;59.468;18.040;2023-10-08T00:11:18;100886.53;;;2.60;79.03
50380;BME280;37474;59.468;18.040;2023-10-08T00:13:49;100872.97;;;2.55;78.49
50380;BME280;37474;59.468;18.040;2023-10-08T00:16:19;100890.84;;;2.58;79.35
50380;BME280;37474;59.468;18.040;2023-10-08T00:18:48;100872.94;;;2.58;78.26
50380;BME280;37474;59.468;18.040;2023-10-08T00:21:20;100882.44;;;2.50;79.17
50380;BME280;37474;59.468;18.040;2023-10-08T00:23:54;100893.50;;;2.52;78.92
50380;BME280;37474;59.468;18.040;2023-10-08T00:26:28;100886.66;;;2.54;78.29
50380;BME280;37474;59.468;18.040;2023-10-08T00:28:59;100890.84;;;2.58;79.02
50380;BME280;37474;59.468;18.040;2023-10-08T00:31:27;100883.41;;;2.43;78.47
50380;BME280;37474;59.468;18.040;2023-10-08T00:33:58;100886.44;;;2.68;77.51
50380;BME280;37474;59.468;18.040;2023-10-08T00:36:26;100879.81;;;2.56;77.36
50380;BME280;37474;59.468;18.040;2023-10-08T00:38:54;100899.25;;;2.66;76.91
50380;BME280;37474;59.468;18.040;2023-10-08T00:41:30;100910.31;;;2.68;77.62
50380;BME280;37474;59.468;18.040;2023-10-08T00:44:00;100911.19;;;2.67;77.31
50380;BME280;37474;59.468;18.040;2023-10-08T00:46:32;100899.34;;;2.60;77.60
50380;BME280;37474;59.468;18.040;2023-10-08T00:49:09;100899.34;;;2.60;78.22
50380;BME280;37474;59.468;18.040;2023-10-08T00:51:52;100882.44;;;2.50;78.30
50380;BME280;37474;59.468;18.040;2023-10-08T00:54:48;100902.13;;;2.46;79.62
50380;BME280;37474;59.468;18.040;2023-10-08T00:57:28;100897.72;;;2.56;78.09
50380;BME280;37474;59.468;18.040;2023-10-08T00:59:57;100901.19;;;2.52;78.79
50380;BME280;37474;59.468;18.040;2023-10-08T01:02:28;100901.00;;;2.64;77.66
50380;BME280;37474;59.468;18.040;2023-10-08T01:05:10;100890.16;;;2.48;77.41
50380;BME280;37474;59.468;18.040;2023-10-08T01:07:40;100888.47;;;2.47;78.15
50380;BME280;37474;59.468;18.040;2023-10-08T01:10:11;100885.00;;;2.50;77.96
50380;BME280;37474;59.468;18.040;2023-10-08T01:12:47;100894.34;;;2.52;78.19
50380;BME280;37474;59.468;18.040;2023-10-08T01:15:34;100888.25;;;2.59;77.01
50380;BME280;37474;59.468;18.040;2023-10-08T01:18:04;100898.66;;;2.49;78.13
50380;BME280;37474;59.468;18.040;2023-10-08T01:20:41;100900.31;;;2.53;78.39
50380;BME280;37474;59.468;18.040;2023-10-08T01:23:20;100904.63;;;2.49;78.26
50380;BME280;37474;59.468;18.040;2023-10-08T01:25:50;100900.34;;;2.50;78.75
50380;BME280;37474;59.468;18.040;2023-10-08T01:28:22;100914.06;;;2.47;78.01
50380;BME280;37474;59.468;18.040;2023-10-08T01:30:58;100903.84;;;2.46;78.43
50380;BME280;37474;59.468;18.040;2023-10-08T01:33:31;100899.53;;;2.48;78.27
50380;BME280;37474;59.468;18.040;2023-10-08T01:36:05;100905.66;;;2.37;78.25
50380;BME280;37474;59.468;18.040;2023-10-08T01:38:41;100901.38;;;2.40;78.76
50380;BME280;37474;59.468;18.040;2023-10-08T01:41:09;100921.81;;;2.41;78.75
50380;BME280;37474;59.468;18.040;2023-10-08T01:43:46;100915.00;;;2.42;78.98
50380;BME280;37474;59.468;18.040;2023-10-08T01:46:14;100914.91;;;2.48;78.78
50380;BME280;37474;59.468;18.040;2023-10-08T01:48:43;100909.66;;;2.57;77.39
50380;BME280;37474;59.468;18.040;2023-10-08T01:51:12;100923.31;;;2.56;77.72
50380;BME280;37474;59.468;18.040;2023-10-08T01:53:54;100918.25;;;2.51;78.60
50380;BME280;37474;59.468;18.040;2023-10-08T01:56:24;100929.44;;;2.46;79.36
50380;BME280;37474;59.468;18.040;2023-10-08T01:58:56;100919.94;;;2.52;78.67
50380;BME280;37474;59.468;18.040;2023-10-08T02:01:24;100923.31;;;2.56;77.68
50380;BME280;37474;59.468;18.040;2023-10-08T02:03:52;100921.66;;;2.52;78.72
50380;BME280;37474;59.468;18.040;2023-10-08T02:06:21;100931.91;;;2.52;79.27
50380;BME280;37474;59.468;18.040;2023-10-08T02:08:50;100926.91;;;2.43;79.26
50380;BME280;37474;59.468;18.040;2023-10-08T02:11:19;100940.38;;;2.57;78.69
50380;BME280;37474;59.468;18.040;2023-10-08T02:13:51;100943.72;;;2.59;79.02
50380;BME280;37474;59.468;18.040;2023-10-08T02:16:20;100936.19;;;2.50;78.36
50380;BME280;37474;59.468;18.040;2023-10-08T02:18:49;100964.28;;;2.54;79.50
50380;BME280;37474;59.468;18.040;2023-10-08T02:21:18;100965.09;;;2.58;78.61
50380;BME280;37474;59.468;18.040;2023-10-08T02:23:46;100948.06;;;2.54;78.80
50380;BME280;37474;59.468;18.040;2023-10-08T02:26:16;100943.91;;;2.47;78.90
50380;BME280;37474;59.468;18.040;2023-10-08T02:28:47;100952.47;;;2.46;79.34
50380;BME280;37474;59.468;18.040;2023-10-08T02:31:17;100955.03;;;2.46;80.22
50380;BME280;37474;59.468;18.040;2023-10-08T02:33:45;100945.63;;;2.46;79.38
50380;BME280;37474;59.468;18.040;2023-10-08T02:36:13;100955.06;;;2.43;79.51
50380;BME280;37474;59.468;18.040;2023-10-08T02:38:42;100967.88;;;2.41;80.19
50380;BME280;37474;59.468;18.040;2023-10-08T02:41:15;100967.16;;;2.31;81.31
50380;BME280;37474;59.468;18.040;2023-10-08T02:43:44;100954.25;;;2.41;80.37
50380;BME280;37474;59.468;18.040;2023-10-08T02:46:14;100955.91;;;2.45;80.33
50380;BME280;37474;59.468;18.040;2023-10-08T02:48:44;100957.69;;;2.40;81.16
50380;BME280;37474;59.468;18.040;2023-10-08T02:51:13;100962.72;;;2.46;80.27
50380;BME280;37474;59.468;18.040;2023-10-08T02:53:41;100967.81;;;2.46;80.26
50380;BME280;37474;59.468;18.040;2023-10-08T02:56:11;100973.75;;;2.48;80.89
50380;BME280;37474;59.468;18.040;2023-10-08T02:58:42;100973.88;;;2.40;81.24
50380;BME280;37474;59.468;18.040;2023-10-08T03:01:11;100969.72;;;2.31;81.09
50380;BME280;37474;59.468;18.040;2023-10-08T03:03:42;100967.94;;;2.36;80.99
50380;BME280;37474;59.468;18.040;2023-10-08T03:06:10;100982.31;;;2.47;81.02
50380;BME280;37474;59.468;18.040;2023-10-08T03:08:41;100988.38;;;2.38;81.17
50380;BME280;37474;59.468;18.040;2023-10-08T03:11:10;100990.06;;;2.41;80.82
50380;BME280;37474;59.468;18.040;2023-10-08T03:13:44;100990.72;;;2.55;80.49
50380;BME280;37474;59.468;18.040;2023-10-08T03:16:13;100980.72;;;2.38;81.51
50380;BME280;37474;59.468;18.040;2023-10-08T03:18:43;100982.34;;;2.45;81.50
50380;BME280;37474;59.468;18.040;2023-10-08T03:21:17;101000.16;;;2.50;81.92
50380;BME280;37474;59.468;18.040;2023-10-08T03:23:51;100996.78;;;2.48;81.26
50380;BME280;37474;59.468;18.040;2023-10-08T03:26:24;101002.69;;;2.53;81.11
50380;BME280;37474;59.468;18.040;2023-10-08T03:29:04;101007.94;;;2.44;82.23
50380;BME280;37474;59.468;18.040;2023-10-08T03:31:36;101001.88;;;2.51;81.67
50380;BME280;37474;59.468;18.040;2023-10-08T03:34:19;100996.88;;;2.42;81.21
50380;BME280;37474;59.468;18.040;2023-10-08T03:36:48;101015.56;;;2.47;82.25
50380;BME280;37474;59.468;18.040;2023-10-08T03:39:17;101015.63;;;2.42;82.49
50380;BME280;37474;59.468;18.040;2023-10-08T03:41:46;101011.50;;;2.33;83.06
50380;BME280;37474;59.468;18.040;2023-10-08T03:44:26;101053.88;;;2.53;82.04
50380;BME280;37474;59.468;18.040;2023-10-08T03:46:56;101013.81;;;2.49;80.89
50380;BME280;37474;59.468;18.040;2023-10-08T03:49:28;101030.84;;;2.53;81.96
50380;BME280;37474;59.468;18.040;2023-10-08T03:51:59;101042.81;;;2.51;82.13
50380;BME280;37474;59.468;18.040;2023-10-08T03:54:27;101038.41;;;2.60;80.68
50380;BME280;37474;59.468;18.040;2023-10-08T03:57:02;101054.69;;;2.56;82.07
50380;BME280;37474;59.468;18.040;2023-10-08T03:59:31;101043.47;;;2.67;80.84
50380;BME280;37474;59.468;18.040;2023-10-08T04:02:01;101046.97;;;2.59;80.84
50380;BME280;37474;59.468;18.040;2023-10-08T04:04:42;101051.22;;;2.59;81.00
50380;BME280;37474;59.468;18.040;2023-10-08T04:07:18;101027.22;;;2.68;80.24
50380;BME280;37474;59.468;18.040;2023-10-08T04:09:55;101047.56;;;2.78;79.33
50380;BME280;37474;59.468;18.040;2023-10-08T04:12:53;101033.97;;;2.72;79.26
50380;BME280;37474;59.468;18.040;2023-10-08T04:15:22;101056.03;;;2.83;78.19
50380;BME280;37474;59.468;18.040;2023-10-08T04:17:50;101034.66;;;2.84;77.99
50380;BME280;37474;59.468;18.040;2023-10-08T04:20:20;101060.94;;;2.97;77.22
50380;BME280;37474;59.468;18.040;2023-10-08T04:23:07;101062.69;;;2.95;77.28
50380;BME280;37474;59.468;18.040;2023-10-08T04:25:40;101067.81;;;2.94;76.92
50380;BME280;37474;59.468;18.040;2023-10-08T04:28:10;101072.81;;;3.03;76.68
50380;BME280;37474;59.468;18.040;2023-10-08T04:30:44;101072.81;;;3.03;75.92
50380;BME280;37474;59.468;18.040;2023-10-08T04:33:14;101083.78;;;3.12;75.50
50380;BME280;37474;59.468;18.040;2023-10-08T04:35:44;101078.72;;;3.08;76.31
50380;BME280;37474;59.468;18.040;2023-10-08T04:38:20;101094.94;;;3.07;76.09
50380;BME280;37474;59.468;18.040;2023-10-08T04:40:48;101095.03;;;3.01;76.39
50380;BME280;37474;59.468;18.040;2023-10-08T04:43:18;101092.44;;;3.02;75.72
50380;BME280;37474;59.468;18.040;2023-10-08T04:45:52;101105.25;;;3.02;76.56
50380;BME280;37474;59.468;18.040;2023-10-08T04:48:20;101102.88;;;2.88;76.50
50380;BME280;37474;59.468;18.040;2023-10-08T04:50:51;101107.81;;;3.02;76.33
50380;BME280;37474;59.468;18.040;2023-10-08T04:53:26;101124.09;;;2.98;76.88
50380;BME280;37474;59.468;18.040;2023-10-08T04:56:05;101121.44;;;3.06;76.16
50380;BME280;37474;59.468;18.040;2023-10-08T04:58:33;101125.81;;;2.98;77.49
50380;BME280;37474;59.468;18.040;2023-10-08T05:01:04;101134.38;;;2.97;76.73
50380;BME280;37474;59.468;18.040;2023-10-08T05:03:56;101136.88;;;3.00;76.82
50380;BME280;37474;59.468;18.040;2023-10-08T05:06:53;101136.94;;;2.94;77.27
50380;BME280;37474;59.468;18.040;2023-10-08T05:09:56;101133.41;;;3.04;75.49
50380;BME280;37474;59.468;18.040;2023-10-08T05:12:38;101139.38;;;3.04;75.65
50380;BME280;37474;59.468;18.040;2023-10-08T05:15:13;101143.63;;;3.07;76.36
50380;BME280;37474;59.468;18.040;2023-10-08T05:18:00;101150.56;;;3.00;76.58
50380;BME280;37474;59.468;18.040;2023-10-08T05:20:40;101161.56;;;3.05;76.67
50380;BME280;37474;59.468;18.040;2023-10-08T05:23:26;101152.19;;;3.06;76.25
50380;BME280;37474;59.468;18.040;2023-10-08T05:26:21;101169.97;;;3.16;75.45
50380;BME280;37474;59.468;18.040;2023-10-08T05:28:58;101171.75;;;3.11;76.60
50380;BME280;37474;59.468;18.040;2023-10-08T05:31:28;101175.16;;;3.12;75.95
50380;BME280;37474;59.468;18.040;2023-10-08T05:34:14;101176.88;;;3.10;76.97
50380;BME280;37474;59.468;18.040;2023-10-08T05:36:44;101181.97;;;3.13;76.46
50380;BME280;37474;59.468;18.040;2023-10-08T05:39:38;101191.38;;;3.09;77.12
50380;BME280;37474;59.468;18.040;2023-10-08T05:42:22;101188.75;;;3.15;76.05
50380;BME280;37474;59.468;18.040;2023-10-08T05:44:59;101200.72;;;3.16;76.14
50380;BME280;37474;59.468;18.040;2023-10-08T05:47:41;101205.75;;;3.21;76.32
50380;BME280;37474;59.468;18.040;2023-10-08T05:50:29;101210.03;;;3.21;77.12
50380;BME280;37474;59.468;18.040;2023-10-08T05:53:06;101227.09;;;3.23;76.18
50380;BME280;37474;59.468;18.040;2023-10-08T05:56:03;101235.56;;;3.28;75.58
50380;BME280;37474;59.468;18.040;2023-10-08T05:58:44;101216.94;;;3.17;76.08
50380;BME280;37474;59.468;18.040;2023-10-08T06:01:27;101221.94;;;3.25;75.98
50380;BME280;37474;59.468;18.040;2023-10-08T06:04:07;101226.16;;;3.29;76.82
50380;BME280;37474;59.468;18.040;2023-10-08T06:07:08;101236.28;;;3.36;75.87
50380;BME280;37474;59.468;18.040;2023-10-08T06:09:52;101243.91;;;3.42;74.59
50380;BME280;37474;59.468;18.040;2023-10-08T06:12:31;101252.28;;;3.54;75.23
50380;BME280;37474;59.468;18.040;2023-10-08T06:15:13;101247.28;;;3.46;75.63
50380;BME280;37474;59.468;18.040;2023-10-08T06:17:43;101255.75;;;3.51;75.35
50380;BME280;37474;59.468;18.040;2023-10-08T06:20:34;101258.91;;;3.68;75.22
50380;BME280;37474;59.468;18.040;2023-10-08T06:23:06;101261.44;;;3.71;74.33
50380;BME280;37474;59.468;18.040;2023-10-08T06:25:34;101250.16;;;3.82;73.36
50380;BME280;37474;59.468;18.040;2023-10-08T06:28:13;101270.38;;;4.02;73.31
50380;BME280;37474;59.468;18.040;2023-10-08T06:30:42;101272.88;;;4.05;73.09
50380;BME280;37474;59.468;18.040;2023-10-08T06:33:14;101278.81;;;4.10;72.36
50380;BME280;37474;59.468;18.040;2023-10-08T06:35:43;101296.81;;;4.07;73.05
50380;BME280;37474;59.468;18.040;2023-10-08T06:38:23;101279.72;;;4.07;73.84
50380;BME280;37474;59.468;18.040;2023-10-08T06:40:53;101280.41;;;4.17;72.58
50380;BME280;37474;59.468;18.040;2023-10-08T06:43:22;101283.72;;;4.23;71.22
50380;BME280;37474;59.468;18.040;2023-10-08T06:45:53;101269.28;;;4.18;72.55
50380;BME280;37474;59.468;18.040;2023-10-08T06:48:25;101278.63;;;4.22;72.08
50380;BME280;37474;59.468;18.040;2023-10-08T06:50:56;101294.63;;;4.36;71.33
50380;BME280;37474;59.468;18.040;2023-10-08T06:53:25;101293.75;;;4.37;72.09
50380;BME280;37474;59.468;18.040;2023-10-08T06:55:56;101291.19;;;4.39;72.09
50380;BME280;37474;59.468;18.040;2023-10-08T06:58:25;101291.16;;;4.40;71.72
50380;BME280;37474;59.468;18.040;2023-10-08T07:00:54;101303.16;;;4.37;70.46
50380;BME280;37474;59.468;18.040;2023-10-08T07:03:25;101305.63;;;4.43;71.02
50380;BME280;37474;59.468;18.040;2023-10-08T07:05:55;101294.28;;;4.56;70.64
50380;BME280;37474;59.468;18.040;2023-10-08T07:08:32;101304.56;;;4.55;70.33
50380;BME280;37474;59.468;18.040;2023-10-08T07:11:03;101299.31;;;4.61;70.45
50380;BME280;37474;59.468;18.040;2023-10-08T07:13:33;101306.19;;;4.62;71.20
50380;BME280;37474;59.468;18.040;2023-10-08T07:16:05;101308.69;;;4.65;70.51
50380;BME280;37474;59.468;18.040;2023-10-08T07:18:38;101330.84;;;4.70;70.40
50380;BME280;37474;59.468;18.040;2023-10-08T07:21:09;101338.44;;;4.78;69.92
50380;BME280;37474;59.468;18.040;2023-10-08T07:23:39;101332.44;;;4.76;69.31
50380;BME280;37474;59.468;18.040;2023-10-08T07:26:24;101343.69;;;4.72;70.19
50380;BME280;37474;59.468;18.040;2023-10-08T07:29:04;101347.69;;;4.87;69.61
50380;BME280;37474;59.468;18.040;2023-10-08T07:31:39;101359.25;;;5.09;69.93
50380;BME280;37474;59.468;18.040;2023-10-08T07:34:08;101358.38;;;5.10;68.74
50380;BME280;37474;59.468;18.040;2023-10-08T07:36:46;101362.66;;;5.11;68.54
50380;BME280;37474;59.468;18.040;2023-10-08T07:39:16;101364.47;;;5.06;69.28
50380;BME280;37474;59.468;18.040;2023-10-08T07:41:53;101369.63;;;5.04;68.82
50380;BME280;37474;59.468;18.040;2023-10-08T07:44:22;101364.28;;;5.17;69.26
50380;BME280;37474;59.468;18.040;2023-10-08T07:46:53;101378.63;;;5.27;67.93
50380;BME280;37474;59.468;18.040;2023-10-08T07:49:21;101392.34;;;5.26;68.79
50380;BME280;37474;59.468;18.040;2023-10-08T07:51:51;101388.97;;;5.24;67.72
50380;BME280;37474;59.468;18.040;2023-10-08T07:54:22;101381.19;;;5.28;68.70
50380;BME280;37474;59.468;18.040;2023-10-08T07:56:50;101388.50;;;5.48;67.85
50380;BME280;37474;59.468;18.040;2023-10-08T07:59:21;101412.34;;;5.56;68.13
50380;BME280;37474;59.468;18.040;2023-10-08T08:01:49;101405.56;;;5.52;66.23
50380;BME280;37474;59.468;18.040;2023-10-08T08:04:20;101393.47;;;5.57;66.82
50380;BME280;37474;59.468;18.040;2023-10-08T08:06:50;101398.84;;;5.45;66.88
50380;BME280;37474;59.468;18.040;2023-10-08T08:09:19;101404.53;;;5.61;67.16
50380;BME280;37474;59.468;18.040;2023-10-08T08:11:47;101404.56;;;5.60;67.29
50380;BME280;37474;59.468;18.040;2023-10-08T08:14:16;101408.63;;;5.70;67.01
50380;BME280;37474;59.468;18.040;2023-10-08T08:16:44;101409.47;;;5.70;66.63
50380;BME280;37474;59.468;18.040;2023-10-08T08:19:15;101415.44;;;5.74;64.90
50380;BME280;37474;59.468;18.040;2023-10-08T08:21:45;101419.81;;;5.69;65.95
50380;BME280;37474;59.468;18.040;2023-10-08T08:24:14;101434.19;;;5.79;65.96
50380;BME280;37474;59.468;18.040;2023-10-08T08:26:55;101427.44;;;5.72;65.69
50380;BME280;37474;59.468;18.040;2023-10-08T08:29:35;101436.34;;;6.00;65.88
50380;BME280;37474;59.468;18.040;2023-10-08T08:32:11;101438.75;;;6.08;65.51
50380;BME280;37474;59.468;18.040;2023-10-08T08:34:42;101441.38;;;6.05;66.31
50380;BME280;37474;59.468;18.040;2023-10-08T08:37:12;101449.00;;;6.09;65.03
50380;BME280;37474;59.468;18.040;2023-10-08T08:39:41;101442.25;;;6.04;64.96
50380;BME280;37474;59.468;18.040;2023-10-08T08:42:09;101424.28;;;6.02;66.58
50380;BME280;37474;59.468;18.040;2023-10-08T08:44:38;101449.06;;;6.08;64.63
50380;BME280;37474;59.468;18.040;2023-10-08T08:47:13;101449.09;;;6.06;65.80
50380;BME280;37474;59.468;18.040;2023-10-08T08:49:45;101455.00;;;6.12;65.06
50380;BME280;37474;59.468;18.040;2023-10-08T08:52:15;101462.50;;;6.21;64.62
50380;BME280;37474;59.468;18.040;2023-10-08T08:54:42;101454.50;;;6.34;64.98
50380;BME280;37474;59.468;18.040;2023-10-08T08:57:11;101464.78;;;6.34;64.54
50380;BME280;37474;59.468;18.040;2023-10-08T08:59:46;101444.28;;;6.30;63.83
50380;BME280;37474;59.468;18.040;2023-10-08T09:02:19;101442.25;;;6.44;64.08
50380;BME280;37474;59.468;18.040;2023-10-08T09:04:49;101466.97;;;6.51;64.39
50380;BME280;37474;59.468;18.040;2023-10-08T09:07:23;101476.72;;;6.39;62.12
50380;BME280;37474;59.468;18.040;2023-10-08T09:09:56;101481.88;;;6.39;61.28
50380;BME280;37474;59.468;18.040;2023-10-08T09:12:26;101486.09;;;6.41;63.03
50380;BME280;37474;59.468;18.040;2023-10-08T09:15:00;101502.09;;;6.55;63.67
50380;BME280;37474;59.468;18.040;2023-10-08T09:17:29;101483.00;;;6.64;63.07
50380;BME280;37474;59.468;18.040;2023-10-08T09:20:03;101475.66;;;6.47;61.70
50380;BME280;37474;59.468;18.040;2023-10-08T09:23:00;101490.03;;;6.57;60.20
50380;BME280;37474;59.468;18.040;2023-10-08T09:25:34;101492.41;;;6.67;62.04
50380;BME280;37474;59.468;18.040;2023-10-08T09:28:02;101467.34;;;6.73;60.54
50380;BME280;37474;59.468;18.040;2023-10-08T09:30:34;101508.38;;;6.81;60.58
50380;BME280;37474;59.468;18.040;2023-10-08T09:33:05;101512.69;;;6.80;59.07
50380;BME280;37474;59.468;18.040;2023-10-08T09:35:34;101491.81;;;6.91;58.91
50380;BME280;37474;59.468;18.040;2023-10-08T09:38:05;101488.59;;;7.17;60.29
50380;BME280;37474;59.468;18.040;2023-10-08T09:40:36;101515.19;;;7.19;57.55
50380;BME280;37474;59.468;18.040;2023-10-08T09:43:04;101519.44;;;6.86;56.38
50380;BME280;37474;59.468;18.040;2023-10-08T09:45:36;101518.34;;;6.96;57.20
50380;BME280;37474;59.468;18.040;2023-10-08T09:48:10;101524.19;;;7.03;58.04
50380;BME280;37474;59.468;18.040;2023-10-08T09:50:41;101527.97;;;7.24;58.60
50380;BME280;37474;59.468;18.040;2023-10-08T09:53:12;101533.88;;;7.29;57.76
50380;BME280;37474;59.468;18.040;2023-10-08T09:55:45;101555.41;;;7.28;57.21
50380;BME280;37474;59.468;18.040;2023-10-08T09:58:16;101535.03;;;7.17;58.16
50380;BME280;37474;59.468;18.040;2023-10-08T10:00:45;101530.34;;;7.33;57.32
50380;BME280;37474;59.468;18.040;2023-10-08T10:03:16;101542.41;;;7.31;58.50
50380;BME280;37474;59.468;18.040;2023-10-08T10:05:45;101527.66;;;7.36;57.80
50380;BME280;37474;59.468;18.040;2023-10-08T10:08:17;101549.09;;;7.38;55.44
50380;BME280;37474;59.468;18.040;2023-10-08T10:10:46;101551.81;;;7.33;56.22
50380;BME280;37474;59.468;18.040;2023-10-08T10:13:16;101556.94;;;7.35;56.75
50380;BME280;37474;59.468;18.040;2023-10-08T10:15:47;101566.16;;;7.44;56.50
50380;BME280;37474;59.468;18.040;2023-10-08T10:18:16;101567.31;;;7.32;56.22
50380;BME280;37474;59.468;18.040;2023-10-08T10:20:58;101574.34;;;7.25;55.15
50380;BME280;37474;59.468;18.040;2023-10-08T10:23:36;101556.03;;;7.36;54.10
50380;BME280;37474;59.468;18.040;2023-10-08T10:26:21;101574.84;;;7.41;56.03
50380;BME280;37474;59.468;18.040;2023-10-08T10:29:18;101572.88;;;7.49;55.89
50380;BME280;37474;59.468;18.040;2023-10-08T10:31:47;101541.06;;;7.50;55.92
50380;BME280;37474;59.468;18.040;2023-10-08T10:34:17;101555.84;;;7.76;55.32
50380;BME280;37474;59.468;18.040;2023-10-08T10:36:47;101564.94;;;7.58;53.99
50380;BME280;37474;59.468;18.040;2023-10-08T10:39:17;101580.13;;;7.69;55.49
50380;BME280;37474;59.468;18.040;2023-10-08T10:41:54;101564.88;;;7.60;53.60
50380;BME280;37474;59.468;18.040;2023-10-08T10:44:24;101561.56;;;7.55;54.52
50380;BME280;37474;59.468;18.040;2023-10-08T10:46:52;101576.44;;;7.79;53.56
50380;BME280;37474;59.468;18.040;2023-10-08T10:49:41;101572.34;;;7.72;55.30
50380;BME280;37474;59.468;18.040;2023-10-08T10:52:20;101563.72;;;7.72;53.84
50380;BME280;37474;59.468;18.040;2023-10-08T10:55:04;101577.84;;;7.91;54.90
50380;BME280;37474;59.468;18.040;2023-10-08T10:57:48;101588.41;;;7.82;53.26
50380;BME280;37474;59.468;18.040;2023-10-08T11:00:26;101593.88;;;7.70;53.06
50380;BME280;37474;59.468;18.040;2023-10-08T11:03:11;101578.84;;;7.85;53.75
50380;BME280;37474;59.468;18.040;2023-10-08T11:05:52;101584.66;;;7.93;53.66
50380;BME280;37474;59.468;18.040;2023-10-08T11:08:22;101583.81;;;7.93;52.29
50380;BME280;37474;59.468;18.040;2023-10-08T11:10:53;101589.06;;;7.90;52.85
50380;BME280;37474;59.468;18.040;2023-10-08T11:13:25;101589.66;;;8.00;52.07
50380;BME280;37474;59.468;18.040;2023-10-08T11:16:05;101603.00;;;8.15;53.49
50380;BME280;37474;59.468;18.040;2023-10-08T11:18:35;101617.63;;;8.16;53.41
50380;BME280;37474;59.468;18.040;2023-10-08T11:21:10;101615.50;;;8.00;52.81
50380;BME280;37474;59.468;18.040;2023-10-08T11:23:44;101621.41;;;8.03;52.51
50380;BME280;37474;59.468;18.040;2023-10-08T11:26:22;101616.97;;;8.08;53.22
50380;BME280;37474;59.468;18.040;2023-10-08T11:29:00;101620.75;;;8.28;52.49
50380;BME280;37474;59.468;18.040;2023-10-08T11:31:31;101634.34;;;8.34;53.38
50380;BME280;37474;59.468;18.040;2023-10-08T11:34:02;101641.00;;;8.44;53.26
50380;BME280;37474;59.468;18.040;2023-10-08T11:36:36;101636.16;;;8.31;51.85
50380;BME280;37474;59.468;18.040;2023-10-08T11:39:16;101634.63;;;8.24;51.50
50380;BME280;37474;59.468;18.040;2023-10-08T11:41:57;101638.00;;;8.26;52.44
50380;BME280;37474;59.468;18.040;2023-10-08T11:44:33;101654.34;;;8.26;51.97
50380;BME280;37474;59.468;18.040;2023-10-08T11:47:04;101659.56;;;8.25;52.58
50380;BME280;37474;59.468;18.040;2023-10-08T11:49:39;101648.28;;;8.29;52.05
50380;BME280;37474;59.468;18.040;2023-10-08T11:52:14;101647.91;;;8.44;52.14
50380;BME280;37474;59.468;18.040;2023-10-08T11:54:43;101654.78;;;8.43;52.04
50380;BME280;37474;59.468;18.040;2023-10-08T11:57:16;101637.00;;;8.31;50.68
50380;BME280;37474;59.468;18.040;2023-10-08T11:59:50;101653.09;;;8.42;51.37
50380;BME280;37474;59.468;18.040;2023-10-08T12:02:22;101661.25;;;8.58;51.92
50380;BME280;37474;59.468;18.040;2023-10-08T12:04:50;101643.28;;;8.55;51.66
50380;BME280;37474;59.468;18.040;2023-10-08T12:07:18;101656.50;;;8.74;52.39
50380;BME280;37474;59.468;18.040;2023-10-08T12:09:46;101655.19;;;8.59;51.72
50380;BME280;37474;59.468;18.040;2023-10-08T12:12:17;101649.25;;;8.57;52.12
50380;BME280;37474;59.468;18.040;2023-10-08T12:14:49;101640.34;;;8.67;52.73
50380;BME280;37474;59.468;18.040;2023-10-08T12:17:21;101652.47;;;8.93;52.24
50380;BME280;37474;59.468;18.040;2023-10-08T12:20:05;101645.88;;;9.13;51.18
50380;BME280;37474;59.468;18.040;2023-10-08T12:22:49;101643.13;;;9.17;52.71
50380;BME280;37474;59.468;18.040;2023-10-08T12:25:17;101648.06;;;9.25;51.65
50380;BME280;37474;59.468;18.040;2023-10-08T12:27:47;101647.69;;;9.09;51.89
50380;BME280;37474;59.468;18.040;2023-10-08T12:30:16;101657.88;;;8.86;52.13
50380;BME280;37474;59.468;18.040;2023-10-08T12:32:44;101667.16;;;8.63;51.38
50380;BME280;37474;59.468;18.040;2023-10-08T12:35:13;101654.22;;;8.63;51.17
50380;BME280;37474;59.468;18.040;2023-10-08T12:37:41;101667.75;;;8.71;52.50
50380;BME280;37474;59.468;18.040;2023-10-08T12:40:11;101664.34;;;9.01;51.75
50380;BME280;37474;59.468;18.040;2023-10-08T12:42:52;101668.03;;;8.92;50.63
50380;BME280;37474;59.468;18.040;2023-10-08T12:45:21;101664.78;;;8.85;50.98
50380;BME280;37474;59.468;18.040;2023-10-08T12:47:49;101668.53;;;8.75;50.53
50380;BME280;37474;59.468;18.040;2023-10-08T12:50:18;101667.94;;;8.65;51.08
50380;BME280;37474;59.468;18.040;2023-10-08T12:52:56;101681.88;;;8.61;51.19
50380;BME280;37474;59.468;18.040;2023-10-08T12:55:27;101679.47;;;8.55;51.68
50380;BME280;37474;59.468;18.040;2023-10-08T12:57:58;101683.38;;;8.37;52.93
50380;BME280;37474;59.468;18.040;2023-10-08T13:00:36;101675.31;;;8.48;53.17
50380;BME280;37474;59.468;18.040;2023-10-08T13:03:08;101674.59;;;8.44;52.90
50380;BME280;37474;59.468;18.040;2023-10-08T13:05:42;101678.63;;;8.53;52.79
50380;BME280;37474;59.468;18.040;2023-10-08T13:08:11;101689.88;;;8.52;52.05
50380;BME280;37474;59.468;18.040;2023-10-08T13:10:40;101689.88;;;8.52;51.81
50380;BME280;37474;59.468;18.040;2023-10-08T13:13:13;101692.38;;;8.55;52.30
50380;BME280;37474;59.468;18.040;2023-10-08T13:15:41;101685.59;;;8.51;52.72
50380;BME280;37474;59.468;18.040;2023-10-08T13:18:09;101691.94;;;8.70;51.92
50380;BME280;37474;59.468;18.040;2023-10-08T13:20:37;101700.47;;;8.74;50.16
50380;BME280;37474;59.468;18.040;2023-10-08T13:23:08;101706.34;;;8.48;50.97